createdAt,value
2023-02-23T00:01:27.892Z,17.33
2023-02-23T00:03:56.386Z,16.08
2023-02-23T00:06:24.745Z,17.33
2023-02-23T00:08:52.260Z,14.27
2023-02-23T00:11:20.258Z,17.27
2023-02-23T00:13:50.290Z,18.27
2023-02-23T00:16:21.728Z,15.00
2023-02-23T00:18:50.674Z,18.17
2023-02-23T00:21:19.067Z,16.33
2023-02-23T00:23:57.353Z,18.00
2023-02-23T00:26:25.601Z,17.42
2023-02-23T00:28:55.965Z,17.50
2023-02-23T00:31:27.562Z,17.23
2023-02-23T00:33:59.430Z,17.73
2023-02-23T00:36:29.623Z,17.50
2023-02-23T00:38:58.306Z,18.10
2023-02-23T00:41:30.962Z,17.95
2023-02-23T00:43:59.526Z,17.27
2023-02-23T00:46:28.406Z,15.35
2023-02-23T00:48:56.869Z,17.95
2023-02-23T00:51:27.417Z,17.58
2023-02-23T00:53:55.201Z,17.92
2023-02-23T00:56:22.076Z,17.40
2023-02-23T00:58:48.776Z,17.80
2023-02-23T01:01:16.559Z,16.52
2023-02-23T01:03:44.355Z,18.17
2023-02-23T01:06:14.772Z,17.73
2023-02-23T01:08:44.763Z,17.38
2023-02-23T01:11:14.416Z,16.85
2023-02-23T01:13:43.333Z,15.27
2023-02-23T01:16:14.012Z,18.55
2023-02-23T01:18:41.659Z,17.73
2023-02-23T01:21:20.131Z,16.52
2023-02-23T01:23:47.312Z,16.00
2023-02-23T01:26:19.164Z,16.13
2023-02-23T01:28:50.295Z,19.38
2023-02-23T01:31:17.380Z,17.90
2023-02-23T01:33:44.450Z,17.02
2023-02-23T01:36:10.989Z,17.05
2023-02-23T01:38:37.865Z,16.02
2023-02-23T01:41:04.607Z,16.77
2023-02-23T01:43:31.086Z,16.17
2023-02-23T01:46:00.493Z,16.40
2023-02-23T01:48:32.602Z,18.08
2023-02-23T01:51:10.643Z,17.60
2023-02-23T01:53:42.222Z,16.55
2023-02-23T01:56:18.193Z,15.18
2023-02-23T01:58:54.675Z,16.70
2023-02-23T02:01:22.225Z,16.73
2023-02-23T02:03:56.166Z,17.63
2023-02-23T02:06:28.782Z,18.60
2023-02-23T02:09:00.033Z,17.70
2023-02-23T02:11:30.912Z,17.60
2023-02-23T02:14:02.650Z,17.70
2023-02-23T02:16:47.323Z,18.70
2023-02-23T02:19:48.750Z,18.08
2023-02-23T02:22:36.708Z,17.75
2023-02-23T02:25:12.684Z,18.70
2023-02-23T02:28:22.250Z,17.63
2023-02-23T02:31:30.891Z,17.45
2023-02-23T02:34:22.977Z,15.13
2023-02-23T02:37:11.248Z,18.55
2023-02-23T02:40:15.135Z,15.57
2023-02-23T02:43:03.501Z,15.93
2023-02-23T02:45:40.057Z,17.08
2023-02-23T02:48:20.685Z,17.30
2023-02-23T02:51:10.010Z,17.45
2023-02-23T02:53:43.933Z,16.80
2023-02-23T02:56:13.036Z,18.30
2023-02-23T02:58:42.274Z,17.45
2023-02-23T03:04:17.373Z,16.58
2023-02-23T03:07:28.108Z,17.05
2023-02-23T03:10:20.794Z,17.35
2023-02-23T03:13:26.354Z,17.45
2023-02-23T03:16:26.842Z,17.85
2023-02-23T03:19:35.235Z,18.13
2023-02-23T03:22:44.649Z,18.15
2023-02-23T03:25:59.947Z,15.85
2023-02-23T03:28:51.504Z,17.23
2023-02-23T03:31:36.708Z,17.63
2023-02-23T03:34:33.600Z,17.33
2023-02-23T03:37:32.564Z,16.85
2023-02-23T03:40:37.562Z,15.57
2023-02-23T03:43:30.707Z,17.83
2023-02-23T03:46:18.831Z,17.80
2023-02-23T03:49:06.647Z,16.83
2023-02-23T03:55:04.281Z,18.50
2023-02-23T03:57:52.554Z,16.98
2023-02-23T04:00:45.280Z,18.70
2023-02-23T04:03:34.173Z,18.65
2023-02-23T04:06:20.389Z,17.50
2023-02-23T04:09:07.805Z,18.95
2023-02-23T04:12:05.748Z,19.23
2023-02-23T04:14:48.826Z,17.30
2023-02-23T04:17:16.620Z,17.02
2023-02-23T04:19:53.564Z,18.52
2023-02-23T04:22:21.128Z,18.17
2023-02-23T04:24:48.484Z,17.63
2023-02-23T04:27:15.575Z,17.58
2023-02-23T04:29:42.354Z,19.17
2023-02-23T04:32:13.470Z,21.00
2023-02-23T04:34:40.230Z,20.23
2023-02-23T04:37:06.796Z,19.48
2023-02-23T04:39:33.383Z,21.30
2023-02-23T04:41:59.894Z,19.52
2023-02-23T04:44:26.845Z,20.20
2023-02-23T04:46:53.350Z,21.92
2023-02-23T04:49:19.912Z,18.38
2023-02-23T04:51:46.395Z,20.27
2023-02-23T04:54:12.898Z,19.75
2023-02-23T04:56:39.591Z,21.13
2023-02-23T04:59:06.249Z,22.35
2023-02-23T05:01:32.909Z,22.73
2023-02-23T05:04:00.418Z,21.15
2023-02-23T05:06:26.898Z,21.08
2023-02-23T05:08:53.377Z,19.60
2023-02-23T05:11:20.141Z,21.13
2023-02-23T05:13:46.766Z,21.10
2023-02-23T05:16:13.307Z,21.95
2023-02-23T05:18:39.873Z,21.25
2023-02-23T05:21:08.949Z,21.23
2023-02-23T05:23:36.172Z,19.52
2023-02-23T05:26:12.853Z,22.77
2023-02-23T05:28:41.295Z,22.60
2023-02-23T05:31:08.360Z,21.25
2023-02-23T05:33:42.616Z,24.02
2023-02-23T05:36:14.135Z,22.90
2023-02-23T05:38:40.889Z,21.92
2023-02-23T05:41:08.981Z,19.58
2023-02-23T05:43:36.018Z,22.27
2023-02-23T05:46:09.395Z,20.48
2023-02-23T05:48:37.615Z,21.30
2023-02-23T05:51:10.360Z,21.98
2023-02-23T05:53:37.037Z,22.33
2023-02-23T05:56:05.725Z,22.55
2023-02-23T05:58:32.377Z,23.80
2023-02-23T06:00:58.897Z,21.45
2023-02-23T06:03:25.547Z,21.92
2023-02-23T06:05:58.585Z,20.25
2023-02-23T06:08:26.338Z,20.40
2023-02-23T06:10:53.609Z,22.25
2023-02-23T06:13:21.286Z,23.08
2023-02-23T06:15:49.511Z,21.63
2023-02-23T06:18:17.675Z,22.70
2023-02-23T06:20:46.150Z,22.60
2023-02-23T06:23:12.984Z,23.20
2023-02-23T06:25:40.412Z,23.38
2023-02-23T06:28:08.583Z,22.48
2023-02-23T06:30:36.078Z,24.08
2023-02-23T06:33:02.647Z,22.15
2023-02-23T06:35:29.299Z,23.80
2023-02-23T06:37:57.021Z,22.55
2023-02-23T06:40:23.941Z,21.35
2023-02-23T06:42:50.505Z,23.13
2023-02-23T06:45:17.654Z,25.67
2023-02-23T06:47:47.739Z,25.88
2023-02-23T06:50:15.444Z,22.38
2023-02-23T06:52:42.176Z,22.85
2023-02-23T06:55:09.466Z,22.70
2023-02-23T06:57:36.096Z,21.75
2023-02-23T07:00:03.273Z,22.75
2023-02-23T07:02:30.074Z,21.40
2023-02-23T07:04:56.561Z,23.15
2023-02-23T07:07:23.635Z,24.02
2023-02-23T07:09:50.159Z,20.77
2023-02-23T07:12:16.744Z,23.08
2023-02-23T07:14:43.327Z,24.30
2023-02-23T07:17:12.281Z,22.10
2023-02-23T07:22:05.917Z,21.73
2023-02-23T07:24:32.473Z,21.90
2023-02-23T07:26:59.049Z,20.92
2023-02-23T07:29:28.224Z,20.65
2023-02-23T07:31:56.030Z,23.10
2023-02-23T07:34:22.659Z,21.50
2023-02-23T07:36:49.192Z,21.73
2023-02-23T07:39:15.839Z,19.95
2023-02-23T07:41:42.368Z,23.40
2023-02-23T07:44:09.044Z,19.33
2023-02-23T07:46:35.531Z,21.83
2023-02-23T07:49:03.032Z,20.88
2023-02-23T07:51:29.749Z,21.67
2023-02-23T07:53:56.260Z,20.35
2023-02-23T07:56:22.889Z,21.80
2023-02-23T07:58:49.432Z,23.05
2023-02-23T08:01:16.093Z,26.10
2023-02-23T08:03:49.440Z,24.70
2023-02-23T08:06:19.851Z,24.63
2023-02-23T08:08:46.558Z,24.05
2023-02-23T08:11:13.804Z,23.80
2023-02-23T08:13:40.485Z,23.55
2023-02-23T08:16:07.509Z,26.88
2023-02-23T08:18:34.396Z,26.23
2023-02-23T08:21:02.690Z,21.13
2023-02-23T08:23:31.162Z,23.55
2023-02-23T08:25:59.584Z,23.05
2023-02-23T08:28:27.685Z,21.27
2023-02-23T08:30:54.843Z,22.90
2023-02-23T08:33:22.193Z,21.55
2023-02-23T08:35:48.930Z,23.63
2023-02-23T08:38:16.556Z,21.92
2023-02-23T08:40:43.497Z,23.63
2023-02-23T08:43:10.126Z,23.67
2023-02-23T08:45:39.596Z,21.00
2023-02-23T08:48:07.570Z,21.15
2023-02-23T08:50:34.343Z,20.67
2023-02-23T08:53:01.003Z,19.65
2023-02-23T08:55:27.518Z,20.90
2023-02-23T08:57:54.019Z,20.35
2023-02-23T09:00:20.988Z,19.50
2023-02-23T09:02:48.259Z,20.02
2023-02-23T09:05:15.858Z,22.38
2023-02-23T09:07:45.184Z,20.05
2023-02-23T09:10:19.716Z,20.48
2023-02-23T09:12:46.395Z,19.02
2023-02-23T09:15:13.057Z,18.92
2023-02-23T09:17:41.381Z,19.48
2023-02-23T09:20:09.416Z,18.02
2023-02-23T09:22:37.014Z,18.15
2023-02-23T09:25:04.912Z,19.90
2023-02-23T09:27:31.456Z,23.10
2023-02-23T09:29:57.975Z,19.52
2023-02-23T09:32:24.656Z,18.13
2023-02-23T09:34:52.549Z,18.70
2023-02-23T09:37:19.134Z,18.65
2023-02-23T09:39:45.815Z,16.65
2023-02-23T09:42:29.995Z,16.65
2023-02-23T09:45:02.071Z,18.08
2023-02-23T09:47:44.043Z,16.77
2023-02-23T09:50:19.360Z,17.98
2023-02-23T09:52:52.329Z,17.13
2023-02-23T09:55:19.524Z,18.40
2023-02-23T09:57:48.762Z,14.65
2023-02-23T10:03:12.815Z,14.82
2023-02-23T10:05:46.061Z,16.35
2023-02-23T10:08:25.028Z,16.33
2023-02-23T10:11:21.198Z,12.77
2023-02-23T10:14:20.124Z,13.25
2023-02-23T10:17:11.389Z,12.77
2023-02-23T10:20:13.118Z,12.68
2023-02-23T10:22:41.219Z,11.63
2023-02-23T10:25:19.850Z,12.90
2023-02-23T10:27:49.106Z,12.27
2023-02-23T10:32:59.372Z,11.45
2023-02-23T10:35:29.231Z,12.90
2023-02-23T10:37:57.097Z,13.00
2023-02-23T10:40:27.726Z,13.13
2023-02-23T10:42:57.112Z,14.07
2023-02-23T10:45:26.435Z,16.33
2023-02-23T10:50:29.168Z,15.00
2023-02-23T10:52:59.963Z,16.30
2023-02-23T10:55:30.612Z,14.40
2023-02-23T10:58:05.803Z,14.25
2023-02-23T11:00:36.946Z,15.25
2023-02-23T11:03:19.163Z,14.38
2023-02-23T11:05:50.499Z,14.35
2023-02-23T11:08:30.574Z,14.15
2023-02-23T11:11:05.944Z,13.32
2023-02-23T11:16:39.159Z,13.23
2023-02-23T11:19:19.319Z,12.82
2023-02-23T11:21:52.067Z,13.60
2023-02-23T11:24:24.787Z,10.35
2023-02-23T11:26:54.390Z,13.25
2023-02-23T11:29:40.706Z,12.38
2023-02-23T11:32:14.885Z,13.80
2023-02-23T11:34:43.424Z,13.52
2023-02-23T11:37:23.168Z,12.60
2023-02-23T11:39:58.360Z,12.73
2023-02-23T11:42:35.583Z,12.48
2023-02-23T11:45:17.179Z,12.77
2023-02-23T11:47:49.908Z,12.48
2023-02-23T11:50:22.448Z,11.75
2023-02-23T11:52:55.874Z,11.63
2023-02-23T11:55:22.881Z,13.02
2023-02-23T11:57:50.312Z,10.52
2023-02-23T12:00:27.817Z,10.95
2023-02-23T12:03:00.615Z,10.57
2023-02-23T12:05:33.775Z,9.60
2023-02-23T12:08:19.251Z,11.30
2023-02-23T12:10:53.815Z,11.30
2023-02-23T12:13:37.991Z,11.23
2023-02-23T12:16:23.389Z,10.73
2023-02-23T12:18:57.351Z,11.02
2023-02-23T12:21:35.589Z,9.57
2023-02-23T12:24:08.118Z,11.05
2023-02-23T12:26:45.506Z,11.10
2023-02-23T12:29:25.895Z,10.40
2023-02-23T12:32:09.675Z,8.98
2023-02-23T12:34:46.345Z,10.18
2023-02-23T12:37:37.147Z,11.52
2023-02-23T12:40:19.620Z,11.80
2023-02-23T12:42:59.263Z,9.57
2023-02-23T12:45:34.850Z,9.77
2023-02-23T12:48:12.248Z,7.65
2023-02-23T12:50:44.384Z,9.45
2023-02-23T12:53:22.482Z,7.72
2023-02-23T12:56:04.485Z,7.95
2023-02-23T12:58:39.982Z,9.45
2023-02-23T13:01:12.742Z,8.88
2023-02-23T13:04:09.757Z,8.65
2023-02-23T13:06:55.090Z,9.40
2023-02-23T13:09:36.885Z,9.68
2023-02-23T13:12:07.796Z,8.95
2023-02-23T13:15:05.760Z,9.50
2023-02-23T13:17:53.727Z,7.57
2023-02-23T13:20:38.502Z,8.25
2023-02-23T13:23:15.580Z,8.80
2023-02-23T13:25:42.355Z,8.63
2023-02-23T13:28:20.663Z,7.68
2023-02-23T13:30:47.758Z,8.52
2023-02-23T13:33:27.540Z,7.30
2023-02-23T13:35:59.149Z,8.95
2023-02-23T13:38:40.369Z,9.70
2023-02-23T13:41:21.504Z,9.73
2023-02-23T13:44:11.116Z,8.07
2023-02-23T13:47:03.545Z,8.23
2023-02-23T13:49:55.960Z,7.45
2023-02-23T13:52:26.613Z,9.88
2023-02-23T13:54:58.735Z,8.57
2023-02-23T13:57:27.879Z,10.85
2023-02-23T14:02:30.754Z,7.93
2023-02-23T14:05:01.635Z,8.45
2023-02-23T14:07:31.411Z,8.52
2023-02-23T14:10:09.807Z,9.15
2023-02-23T14:12:43.072Z,8.93
2023-02-23T14:15:28.270Z,8.15
2023-02-23T14:17:57.659Z,9.30
2023-02-23T14:20:44.141Z,9.13
2023-02-23T14:23:19.975Z,8.57
2023-02-23T14:26:11.768Z,10.48
2023-02-23T14:28:41.554Z,11.85
2023-02-23T14:31:11.227Z,10.85
2023-02-23T14:33:46.952Z,10.77
2023-02-23T14:36:44.187Z,10.82
2023-02-23T14:39:20.037Z,9.38
2023-02-23T14:42:00.327Z,11.23
2023-02-23T14:44:42.278Z,10.00
2023-02-23T14:47:14.437Z,9.75
2023-02-23T14:49:47.600Z,10.15
2023-02-23T14:52:20.866Z,10.77
2023-02-23T14:54:47.849Z,10.00
2023-02-23T14:57:21.987Z,9.80
2023-02-23T14:59:54.694Z,10.68
2023-02-23T15:02:24.592Z,11.48
2023-02-23T15:04:51.561Z,11.23
2023-02-23T15:07:39.935Z,10.85
2023-02-23T15:10:17.374Z,10.18
2023-02-23T15:12:46.667Z,11.20
2023-02-23T15:15:19.540Z,11.48
2023-02-23T15:17:49.706Z,10.30
2023-02-23T15:20:18.595Z,10.35
2023-02-23T15:22:53.921Z,8.93
2023-02-23T15:27:53.230Z,11.48
2023-02-23T15:30:23.182Z,10.00
2023-02-23T15:32:59.057Z,10.65
2023-02-23T15:35:26.212Z,10.57
2023-02-23T15:38:01.401Z,11.27
2023-02-23T15:40:40.306Z,10.15
2023-02-23T15:43:11.263Z,9.73
2023-02-23T15:45:46.808Z,10.43
2023-02-23T15:48:20.959Z,9.18
2023-02-23T15:50:50.336Z,9.85
2023-02-23T15:53:29.214Z,10.57
2023-02-23T15:56:02.921Z,10.32
2023-02-23T15:58:44.579Z,10.02
2023-02-23T16:01:44.805Z,11.60
2023-02-23T16:04:14.478Z,9.10
2023-02-23T16:06:52.878Z,11.65
2023-02-23T16:09:24.121Z,10.18
2023-02-23T16:12:00.871Z,10.75
2023-02-23T16:14:35.233Z,10.98
2023-02-23T16:17:11.004Z,9.63
2023-02-23T16:19:41.564Z,10.48
2023-02-23T16:24:43.106Z,9.30
2023-02-23T16:27:12.098Z,7.82
2023-02-23T16:29:41.989Z,9.77
2023-02-23T16:32:20.166Z,8.68
2023-02-23T16:34:56.389Z,7.68
2023-02-23T16:37:26.209Z,9.05
2023-02-23T16:39:53.093Z,10.38
2023-02-23T16:42:31.267Z,8.10
2023-02-23T16:44:59.132Z,7.68
2023-02-23T16:47:36.393Z,10.18
2023-02-23T16:50:20.352Z,7.47
2023-02-23T16:52:53.828Z,6.50
2023-02-23T16:55:25.829Z,7.47
2023-02-23T16:57:56.345Z,7.28
2023-02-23T17:00:26.800Z,6.55
2023-02-23T17:02:53.537Z,5.97
2023-02-23T17:05:23.746Z,5.85
2023-02-23T17:07:52.005Z,5.80
2023-02-23T17:10:28.839Z,5.13
2023-02-23T17:12:59.926Z,5.90
2023-02-23T17:15:30.149Z,6.30
2023-02-23T17:17:57.254Z,5.65
2023-02-23T17:20:26.053Z,6.38
2023-02-23T17:22:55.069Z,6.82
2023-02-23T17:25:24.330Z,6.45
2023-02-23T17:27:51.187Z,6.70
2023-02-23T17:30:18.504Z,6.28
2023-02-23T17:32:45.467Z,5.78
2023-02-23T17:35:12.165Z,5.72
2023-02-23T17:37:38.789Z,6.25
2023-02-23T17:40:08.852Z,6.07
2023-02-23T17:42:35.705Z,7.07
2023-02-23T17:45:04.311Z,6.88
2023-02-23T17:47:32.845Z,5.63
2023-02-23T17:50:00.778Z,5.55
2023-02-23T17:52:28.561Z,5.50
2023-02-23T17:54:55.699Z,6.30
2023-02-23T17:57:23.384Z,5.90
2023-02-23T17:59:50.226Z,5.55
2023-02-23T18:02:24.150Z,5.82
2023-02-23T18:04:52.976Z,6.20
2023-02-23T18:07:21.026Z,6.80
2023-02-23T18:09:50.689Z,7.97
2023-02-23T18:12:20.694Z,6.70
2023-02-23T18:14:47.343Z,6.70
2023-02-23T18:17:15.794Z,6.55
2023-02-23T18:19:45.315Z,6.65
2023-02-23T18:22:13.874Z,6.28
2023-02-23T18:24:41.549Z,6.25
2023-02-23T18:27:08.126Z,5.95
2023-02-23T18:29:36.595Z,6.10
2023-02-23T18:32:04.924Z,6.60
2023-02-23T18:34:31.603Z,5.60
2023-02-23T18:37:02.277Z,5.93
2023-02-23T18:39:33.289Z,5.22
2023-02-23T18:42:00.652Z,5.70
2023-02-23T18:44:27.517Z,5.45
2023-02-23T18:46:55.140Z,6.18
2023-02-23T18:49:24.358Z,4.93
2023-02-23T18:51:51.606Z,5.70
2023-02-23T18:54:18.946Z,6.53
2023-02-23T18:56:48.022Z,6.65
2023-02-23T18:59:15.530Z,7.55
2023-02-23T19:01:45.412Z,6.68
2023-02-23T19:04:14.860Z,6.20
2023-02-23T19:06:43.746Z,7.30
2023-02-23T19:09:13.467Z,7.32
2023-02-23T19:11:43.651Z,7.13
2023-02-23T19:14:16.354Z,6.97
2023-02-23T19:16:43.526Z,6.72
2023-02-23T19:19:10.347Z,6.63
2023-02-23T19:21:37.829Z,6.88
2023-02-23T19:24:05.927Z,7.88
2023-02-23T19:26:34.145Z,6.63
2023-02-23T19:29:00.987Z,6.38
2023-02-23T19:31:28.626Z,7.43
2023-02-23T19:33:57.461Z,6.75
2023-02-23T19:36:29.795Z,6.30
2023-02-23T19:39:06.181Z,6.32
2023-02-23T19:41:34.419Z,6.82
2023-02-23T19:44:01.644Z,6.72
2023-02-23T19:46:28.899Z,7.75
2023-02-23T19:48:56.394Z,7.75
2023-02-23T19:51:23.988Z,6.90
2023-02-23T19:53:54.073Z,7.63
2023-02-23T19:56:21.329Z,6.72
2023-02-23T19:58:49.356Z,6.38
2023-02-23T20:01:20.933Z,7.13
2023-02-23T20:03:55.315Z,6.72
2023-02-23T20:06:24.865Z,5.60
2023-02-23T20:08:55.134Z,6.38
2023-02-23T20:11:23.169Z,6.20
2023-02-23T20:13:51.419Z,5.78
2023-02-23T20:16:18.314Z,6.13
2023-02-23T20:18:46.058Z,5.53
2023-02-23T20:21:15.785Z,6.13
2023-02-23T20:23:44.948Z,6.65
2023-02-23T20:26:14.891Z,5.93
2023-02-23T20:28:41.982Z,5.32
2023-02-23T20:31:18.373Z,6.30
2023-02-23T20:33:45.042Z,6.45
2023-02-23T20:36:12.212Z,6.43
2023-02-23T20:38:39.284Z,5.70
2023-02-23T20:41:06.114Z,6.35
2023-02-23T20:43:32.770Z,6.40
2023-02-23T20:46:02.923Z,5.93
2023-02-23T20:48:31.568Z,7.13
2023-02-23T20:50:58.945Z,6.18
2023-02-23T20:53:26.392Z,6.65
2023-02-23T20:55:53.599Z,7.70
2023-02-23T20:58:24.987Z,10.23
2023-02-23T21:00:57.131Z,8.63
2023-02-23T21:03:25.251Z,9.43
2023-02-23T21:05:52.282Z,8.63
2023-02-23T21:08:19.859Z,7.70
2023-02-23T21:10:48.323Z,3.65
2023-02-23T21:13:15.542Z,4.50
2023-02-23T21:15:43.538Z,3.60
2023-02-23T21:18:10.710Z,4.70
2023-02-23T21:20:38.493Z,5.05
2023-02-23T21:23:05.081Z,4.22
2023-02-23T21:25:31.891Z,3.83
2023-02-23T21:28:01.942Z,3.72
2023-02-23T21:30:29.562Z,3.80
2023-02-23T21:32:57.533Z,3.97
2023-02-23T21:35:24.343Z,3.92
2023-02-23T21:37:51.924Z,4.10
2023-02-23T21:40:20.817Z,3.15
2023-02-23T21:42:48.149Z,3.80
2023-02-23T21:45:15.250Z,3.65
2023-02-23T21:47:43.622Z,3.63
2023-02-23T21:50:13.633Z,3.88
2023-02-23T21:52:45.201Z,4.07
2023-02-23T21:55:23.441Z,3.83
2023-02-23T21:57:51.361Z,3.65
2023-02-23T22:00:20.843Z,3.42
2023-02-23T22:02:47.939Z,4.00
2023-02-23T22:05:16.129Z,3.35
2023-02-23T22:07:48.801Z,3.22
2023-02-23T22:10:17.569Z,3.33
2023-02-23T22:12:44.146Z,3.35
2023-02-23T22:15:11.123Z,2.95
2023-02-23T22:17:38.622Z,2.75
2023-02-23T22:20:07.294Z,2.92
2023-02-23T22:22:36.180Z,2.85
2023-02-23T22:25:08.033Z,2.78
2023-02-23T22:27:34.890Z,3.17
2023-02-23T22:30:02.083Z,3.53
2023-02-23T22:32:32.974Z,2.75
2023-02-23T22:35:00.820Z,3.60
2023-02-23T22:37:31.930Z,2.25
2023-02-23T22:40:00.328Z,2.90
2023-02-23T22:42:30.366Z,3.38
2023-02-23T22:44:57.201Z,3.10
2023-02-23T22:47:24.330Z,3.22
2023-02-23T22:49:50.825Z,2.55
2023-02-23T22:52:17.386Z,2.72
2023-02-23T22:54:46.202Z,3.50
2023-02-23T22:57:13.491Z,3.38
2023-02-23T22:59:40.105Z,3.15
2023-02-23T23:02:06.749Z,2.53
2023-02-23T23:04:34.454Z,3.13
2023-02-23T23:07:01.201Z,3.17
2023-02-23T23:09:28.216Z,2.90
2023-02-23T23:11:56.654Z,3.33
2023-02-23T23:14:23.419Z,3.63
2023-02-23T23:16:50.187Z,3.20
2023-02-23T23:19:22.586Z,2.97
2023-02-23T23:21:54.855Z,3.15
2023-02-23T23:24:22.960Z,3.20
2023-02-23T23:26:55.542Z,3.42
2023-02-23T23:29:23.660Z,3.60
2023-02-23T23:31:51.632Z,3.33
2023-02-23T23:34:21.653Z,3.40
2023-02-23T23:36:49.164Z,3.55
2023-02-23T23:39:18.106Z,3.00
2023-02-23T23:41:47.940Z,3.70
2023-02-23T23:44:17.162Z,3.38
2023-02-23T23:46:45.104Z,3.30
2023-02-23T23:49:17.967Z,2.50
2023-02-23T23:51:50.558Z,3.03
2023-02-23T23:54:21.483Z,3.75
2023-02-23T23:56:49.637Z,3.30
2023-02-23T23:59:20.226Z,3.15
